createdAt,value
2017-09-16T00:00:01.587Z,0
2017-09-16T00:01:12.240Z,0
2017-09-16T00:02:22.690Z,0
2017-09-16T00:03:33.138Z,0
2017-09-16T00:04:43.859Z,0
2017-09-16T00:05:54.281Z,0
2017-09-16T00:07:04.417Z,0
2017-09-16T00:08:14.926Z,0
2017-09-16T00:09:25.352Z,0
2017-09-16T00:10:35.813Z,0
2017-09-16T00:11:46.274Z,0
2017-09-16T00:12:56.290Z,0
2017-09-16T00:14:06.702Z,0
2017-09-16T00:15:17.226Z,0
2017-09-16T00:16:27.618Z,0
2017-09-16T00:17:38.059Z,0
2017-09-16T00:18:48.481Z,0
2017-09-16T00:19:59.000Z,0
2017-09-16T00:21:09.647Z,0
2017-09-16T00:22:20.329Z,0
2017-09-16T00:23:30.991Z,0
2017-09-16T00:24:41.101Z,0
2017-09-16T00:25:51.578Z,0
2017-09-16T00:27:02.043Z,0
2017-09-16T00:28:12.786Z,0
2017-09-16T00:29:23.224Z,0
2017-09-16T00:30:33.648Z,0
2017-09-16T00:31:44.095Z,0
2017-09-16T00:32:54.581Z,0
2017-09-16T00:34:05.303Z,0
2017-09-16T00:35:15.792Z,0
2017-09-16T00:36:26.238Z,0
2017-09-16T00:37:36.674Z,0
2017-09-16T00:38:47.125Z,0
2017-09-16T00:39:57.502Z,0
2017-09-16T00:41:08.069Z,0
2017-09-16T00:42:18.683Z,0
2017-09-16T00:43:28.819Z,0
2017-09-16T00:44:38.935Z,0
2017-09-16T00:45:49.604Z,0
2017-09-16T00:47:00.270Z,0
2017-09-16T00:48:10.404Z,0
2017-09-16T00:49:20.986Z,0
2017-09-16T00:50:31.098Z,0
2017-09-16T00:51:41.491Z,0
2017-09-16T00:52:51.909Z,0
2017-09-16T00:54:02.479Z,0
2017-09-16T00:55:12.936Z,0
2017-09-16T00:56:23.367Z,0
2017-09-16T00:57:34.081Z,0
2017-09-16T00:58:44.495Z,0
2017-09-16T00:59:54.595Z,0
2017-09-16T01:01:05.141Z,0
2017-09-16T01:02:15.651Z,0
2017-09-16T01:03:26.400Z,0
2017-09-16T01:04:36.830Z,0
2017-09-16T01:05:47.249Z,0
2017-09-16T01:06:57.389Z,0
2017-09-16T01:08:07.554Z,0
2017-09-16T01:09:17.696Z,0
2017-09-16T01:10:27.843Z,0
2017-09-16T01:11:38.264Z,0
2017-09-16T01:12:48.846Z,0
2017-09-16T01:13:59.263Z,0
2017-09-16T01:15:09.893Z,0
2017-09-16T01:16:20.347Z,0
2017-09-16T01:17:30.776Z,0
2017-09-16T01:18:40.916Z,0
2017-09-16T01:19:51.366Z,0
2017-09-16T01:21:01.885Z,0
2017-09-16T01:22:12.302Z,0
2017-09-16T01:23:22.145Z,0
2017-09-16T01:24:32.592Z,0
2017-09-16T01:25:43.023Z,0
2017-09-16T01:26:53.482Z,0
2017-09-16T01:28:03.894Z,0
2017-09-16T01:29:13.903Z,0
2017-09-16T01:30:24.321Z,0
2017-09-16T01:31:34.760Z,0
2017-09-16T01:32:44.896Z,0
2017-09-16T01:33:55.346Z,0
2017-09-16T01:35:05.467Z,0
2017-09-16T01:36:15.977Z,0
2017-09-16T01:37:26.417Z,0
2017-09-16T01:38:36.838Z,0
2017-09-16T01:39:46.649Z,0
2017-09-16T01:40:56.788Z,0
2017-09-16T01:42:07.297Z,0
2017-09-16T01:43:17.430Z,0
2017-09-16T01:44:27.885Z,0
2017-09-16T01:45:38.381Z,0
2017-09-16T01:46:48.848Z,0
2017-09-16T01:47:59.394Z,0
2017-09-16T01:49:09.800Z,0
2017-09-16T01:50:20.254Z,0
2017-09-16T01:51:30.698Z,0
2017-09-16T01:52:41.251Z,0
2017-09-16T01:53:50.964Z,0
2017-09-16T01:55:01.433Z,0
2017-09-16T01:56:11.862Z,0
2017-09-16T01:57:22.341Z,0
2017-09-16T01:58:32.336Z,0
2017-09-16T01:59:42.769Z,0
2017-09-16T02:00:53.206Z,0
2017-09-16T02:02:03.635Z,0
2017-09-16T02:03:14.133Z,0
2017-09-16T02:04:24.240Z,0
2017-09-16T02:05:34.762Z,0
2017-09-16T02:06:45.187Z,0
2017-09-16T02:07:55.645Z,0
2017-09-16T02:09:06.093Z,0
2017-09-16T02:10:16.602Z,0
2017-09-16T02:11:27.035Z,0
2017-09-16T02:12:37.478Z,0
2017-09-16T02:13:47.898Z,0
2017-09-16T02:14:58.322Z,0
2017-09-16T02:16:08.437Z,0
2017-09-16T02:17:18.978Z,0
2017-09-16T02:18:29.428Z,0
2017-09-16T02:19:39.857Z,0
2017-09-16T02:20:50.269Z,0
2017-09-16T02:22:00.431Z,0
2017-09-16T02:23:10.885Z,0
2017-09-16T02:24:21.327Z,0
2017-09-16T02:25:31.811Z,0
2017-09-16T02:26:42.230Z,0
2017-09-16T02:27:52.681Z,0
2017-09-16T02:29:03.185Z,0
2017-09-16T02:30:13.718Z,0
2017-09-16T02:31:24.149Z,0
2017-09-16T02:32:34.657Z,0
2017-09-16T02:33:45.096Z,0
2017-09-16T02:34:55.650Z,0
2017-09-16T02:36:06.077Z,0
2017-09-16T02:37:16.542Z,0
2017-09-16T02:38:26.684Z,0
2017-09-16T02:39:36.824Z,0
2017-09-16T02:40:47.157Z,0
2017-09-16T02:41:57.622Z,0
2017-09-16T02:43:08.298Z,0
2017-09-16T02:44:18.758Z,0
2017-09-16T02:45:29.252Z,0
2017-09-16T02:46:39.700Z,0
2017-09-16T02:47:50.145Z,0
2017-09-16T02:49:00.671Z,0
2017-09-16T02:50:12.171Z,0
2017-09-16T02:51:22.609Z,0
2017-09-16T02:52:33.092Z,0
2017-09-16T02:53:43.588Z,0
2017-09-16T02:54:54.018Z,0
2017-09-16T02:56:04.573Z,0
2017-09-16T02:57:14.982Z,0
2017-09-16T02:58:25.435Z,0
2017-09-16T02:59:35.855Z,0
2017-09-16T03:00:46.340Z,0
2017-09-16T03:01:56.750Z,0
2017-09-16T03:03:07.189Z,0
2017-09-16T03:04:17.612Z,0
2017-09-16T03:05:27.935Z,0
2017-09-16T03:06:38.376Z,0
2017-09-16T03:07:48.808Z,0
2017-09-16T03:08:59.248Z,0
2017-09-16T03:10:09.356Z,0
2017-09-16T03:11:19.884Z,0
2017-09-16T03:12:30.304Z,0
2017-09-16T03:13:40.728Z,0
2017-09-16T03:14:51.145Z,0
2017-09-16T03:16:01.848Z,0
2017-09-16T03:17:12.516Z,0
2017-09-16T03:18:22.970Z,0
2017-09-16T03:19:32.997Z,0
2017-09-16T03:20:43.638Z,0
2017-09-16T03:21:54.274Z,0
2017-09-16T03:23:04.448Z,0
2017-09-16T03:24:14.441Z,0
2017-09-16T03:25:24.926Z,0
2017-09-16T03:26:35.048Z,0
2017-09-16T03:27:45.481Z,0
2017-09-16T03:28:56.078Z,0
2017-09-16T03:30:06.499Z,0
2017-09-16T03:31:16.940Z,0
2017-09-16T03:32:26.674Z,0
2017-09-16T03:33:37.111Z,0
2017-09-16T03:34:47.541Z,0
2017-09-16T03:35:57.964Z,0
2017-09-16T03:37:08.608Z,0
2017-09-16T03:38:19.051Z,0
2017-09-16T03:39:29.550Z,0
2017-09-16T03:40:39.972Z,0
2017-09-16T03:41:50.071Z,0
2017-09-16T03:43:00.505Z,0
2017-09-16T03:44:11.011Z,0
2017-09-16T03:45:21.484Z,0
2017-09-16T03:46:31.900Z,0
2017-09-16T03:47:42.317Z,0
2017-09-16T03:48:52.762Z,0
2017-09-16T03:50:03.225Z,0
2017-09-16T03:51:13.339Z,0
2017-09-16T03:52:23.770Z,0
2017-09-16T03:53:34.204Z,0
2017-09-16T03:54:44.314Z,0
2017-09-16T03:55:54.760Z,0
2017-09-16T03:57:04.868Z,0
2017-09-16T03:58:15.303Z,0
2017-09-16T03:59:25.789Z,0
2017-09-16T04:00:36.233Z,0
2017-09-16T04:01:46.414Z,0
2017-09-16T04:02:56.960Z,0
2017-09-16T04:04:07.444Z,0
2017-09-16T04:05:17.862Z,0
2017-09-16T04:06:28.297Z,0
2017-09-16T04:07:38.764Z,0
2017-09-16T04:08:49.225Z,0
2017-09-16T04:09:59.691Z,0
2017-09-16T04:11:10.165Z,0
2017-09-16T04:12:20.609Z,0
2017-09-16T04:13:31.041Z,0
2017-09-16T04:14:41.179Z,0
2017-09-16T04:15:52.231Z,0
2017-09-16T04:17:02.660Z,0
2017-09-16T04:18:12.461Z,0
2017-09-16T04:19:22.900Z,0
2017-09-16T04:20:33.319Z,0
2017-09-16T04:21:43.260Z,0
2017-09-16T04:22:53.360Z,0
2017-09-16T04:24:03.847Z,0
2017-09-16T04:25:14.289Z,0
2017-09-16T04:26:24.932Z,0
2017-09-16T04:27:35.376Z,0
2017-09-16T04:28:45.810Z,0
2017-09-16T04:29:56.301Z,0
2017-09-16T04:31:06.447Z,0
2017-09-16T04:32:16.896Z,0
2017-09-16T04:33:27.135Z,0
2017-09-16T04:34:37.579Z,0
2017-09-16T04:35:48.008Z,0
2017-09-16T04:36:58.338Z,0
2017-09-16T04:38:08.780Z,0
2017-09-16T04:39:18.937Z,0
2017-09-16T04:40:29.629Z,0
2017-09-16T04:41:40.068Z,0
2017-09-16T04:42:50.482Z,0
2017-09-16T04:44:00.602Z,0
2017-09-16T04:45:11.263Z,5
2017-09-16T04:46:21.747Z,5
2017-09-16T04:47:32.191Z,5
2017-09-16T04:48:42.616Z,5
2017-09-16T04:49:52.724Z,5
2017-09-16T04:51:03.190Z,5
2017-09-16T04:52:13.386Z,10
2017-09-16T04:53:23.722Z,10
2017-09-16T04:54:34.145Z,10
2017-09-16T04:55:44.583Z,10
2017-09-16T04:56:55.022Z,10
2017-09-16T04:58:05.432Z,15
2017-09-16T04:59:15.872Z,15
2017-09-16T05:00:26.299Z,15
2017-09-16T05:01:36.816Z,20
2017-09-16T05:02:47.250Z,20
2017-09-16T05:03:57.366Z,20
2017-09-16T05:05:07.572Z,25
2017-09-16T05:06:18.200Z,25
2017-09-16T05:07:28.621Z,25
2017-09-16T05:08:39.216Z,30
2017-09-16T05:09:49.203Z,30
2017-09-16T05:10:59.647Z,30
2017-09-16T05:12:10.257Z,35
2017-09-16T05:13:20.711Z,35
2017-09-16T05:14:31.665Z,40
2017-09-16T05:15:42.076Z,40
2017-09-16T05:16:52.195Z,40
2017-09-16T05:18:02.609Z,45
2017-09-16T05:19:13.039Z,45
2017-09-16T05:20:23.019Z,45
2017-09-16T05:21:33.478Z,45
2017-09-16T05:22:43.896Z,45
2017-09-16T05:23:54.429Z,50
2017-09-16T05:25:04.536Z,55
2017-09-16T05:26:15.119Z,60
2017-09-16T05:27:25.826Z,60
2017-09-16T05:28:36.297Z,60
2017-09-16T05:29:47.361Z,60
2017-09-16T05:30:57.476Z,65
2017-09-16T05:32:07.940Z,65
2017-09-16T05:33:18.362Z,70
2017-09-16T05:34:28.801Z,70
2017-09-16T05:35:39.259Z,75
2017-09-16T05:36:49.360Z,75
2017-09-16T05:37:59.845Z,80
2017-09-16T05:39:10.373Z,80
2017-09-16T05:40:20.929Z,85
2017-09-16T05:41:31.365Z,90
2017-09-16T05:42:41.868Z,90
2017-09-16T05:43:52.284Z,90
2017-09-16T05:45:02.754Z,90
2017-09-16T05:46:12.905Z,90
2017-09-16T05:47:23.343Z,90
2017-09-16T05:48:33.862Z,95
2017-09-16T05:49:44.297Z,100
2017-09-16T05:50:54.723Z,100
2017-09-16T05:52:05.200Z,100
2017-09-16T05:53:15.319Z,105
2017-09-16T05:54:25.643Z,105
2017-09-16T05:55:36.184Z,105
2017-09-16T05:56:46.607Z,110
2017-09-16T05:57:57.110Z,110
2017-09-16T05:59:07.537Z,110
2017-09-16T06:00:17.817Z,110
2017-09-16T06:01:28.269Z,110
2017-09-16T06:02:38.366Z,115
2017-09-16T06:03:48.885Z,115
2017-09-16T06:04:59.581Z,115
2017-09-16T06:06:09.764Z,115
2017-09-16T06:07:20.189Z,115
2017-09-16T06:08:30.636Z,115
2017-09-16T06:09:40.614Z,120
2017-09-16T06:10:51.063Z,120
2017-09-16T06:12:01.492Z,120
2017-09-16T06:13:12.199Z,125
2017-09-16T06:14:22.645Z,125
2017-09-16T06:15:33.333Z,125
2017-09-16T06:16:43.804Z,125
2017-09-16T06:17:54.349Z,130
2017-09-16T06:19:04.479Z,130
2017-09-16T06:20:15.006Z,130
2017-09-16T06:21:25.239Z,135
2017-09-16T06:22:35.679Z,135
2017-09-16T06:23:46.101Z,135
2017-09-16T06:24:56.572Z,140
2017-09-16T06:26:07.130Z,140
2017-09-16T06:27:17.588Z,140
2017-09-16T06:28:28.015Z,140
2017-09-16T06:29:38.094Z,145
2017-09-16T06:30:48.526Z,145
2017-09-16T06:31:58.972Z,145
2017-09-16T06:33:09.419Z,145
2017-09-16T06:34:19.844Z,145
2017-09-16T06:35:30.276Z,150
2017-09-16T06:36:40.718Z,150
2017-09-16T06:37:50.542Z,150
2017-09-16T06:39:00.977Z,150
2017-09-16T06:40:11.123Z,155
2017-09-16T06:41:21.597Z,155
2017-09-16T06:42:32.133Z,155
2017-09-16T06:43:42.629Z,155
2017-09-16T06:44:52.313Z,160
2017-09-16T06:46:02.735Z,160
2017-09-16T06:47:13.189Z,160
2017-09-16T06:48:23.658Z,165
2017-09-16T06:49:34.132Z,165
2017-09-16T06:50:44.254Z,165
2017-09-16T06:51:54.701Z,170
2017-09-16T06:53:04.834Z,170
2017-09-16T06:54:15.435Z,170
2017-09-16T06:55:25.886Z,170
2017-09-16T06:56:36.353Z,175
2017-09-16T06:57:46.861Z,175
2017-09-16T06:58:57.333Z,180
2017-09-16T07:00:07.788Z,180
2017-09-16T07:01:18.213Z,180
2017-09-16T07:02:28.083Z,185
2017-09-16T07:03:38.222Z,185
2017-09-16T07:04:48.714Z,190
2017-09-16T07:05:59.152Z,190
2017-09-16T07:07:09.667Z,195
2017-09-16T07:08:20.249Z,200
2017-09-16T07:09:30.709Z,200
2017-09-16T07:10:41.147Z,205
2017-09-16T07:11:51.304Z,210
2017-09-16T07:13:01.750Z,215
2017-09-16T07:14:12.206Z,215
2017-09-16T07:15:22.658Z,220
2017-09-16T07:16:33.459Z,225
2017-09-16T07:17:43.598Z,230
2017-09-16T07:18:54.035Z,230
2017-09-16T07:20:04.476Z,235
2017-09-16T07:21:14.904Z,235
2017-09-16T07:22:25.034Z,235
2017-09-16T07:23:35.493Z,240
2017-09-16T07:24:45.977Z,245
2017-09-16T07:25:56.479Z,245
2017-09-16T07:27:06.929Z,250
2017-09-16T07:28:17.447Z,250
2017-09-16T07:29:27.944Z,255
2017-09-16T07:30:38.457Z,255
2017-09-16T07:31:48.878Z,260
2017-09-16T07:32:58.562Z,260
2017-09-16T07:34:08.685Z,265
2017-09-16T07:35:19.155Z,270
2017-09-16T07:36:29.633Z,270
2017-09-16T07:37:40.206Z,270
2017-09-16T07:38:50.653Z,275
2017-09-16T07:40:01.152Z,275
2017-09-16T07:41:11.573Z,285
2017-09-16T07:42:22.202Z,280
2017-09-16T07:43:32.652Z,285
2017-09-16T07:44:43.157Z,285
2017-09-16T07:45:53.672Z,290
2017-09-16T07:47:04.125Z,290
2017-09-16T07:48:14.688Z,295
2017-09-16T07:49:25.130Z,295
2017-09-16T07:50:35.607Z,300
2017-09-16T07:51:46.051Z,300
2017-09-16T07:52:56.490Z,300
2017-09-16T07:54:06.974Z,305
2017-09-16T07:55:17.459Z,305
2017-09-16T07:56:27.888Z,310
2017-09-16T07:57:38.337Z,310
2017-09-16T07:58:48.758Z,310
2017-09-16T07:59:59.238Z,315
2017-09-16T08:01:09.708Z,325
2017-09-16T08:02:20.165Z,335
2017-09-16T08:03:30.630Z,355
2017-09-16T08:04:41.054Z,520
2017-09-16T08:05:51.604Z,970
2017-09-16T08:07:02.026Z,1355
2017-09-16T08:08:12.485Z,1440
2017-09-16T08:09:22.932Z,1510
2017-09-16T08:10:33.500Z,1625
2017-09-16T08:11:43.965Z,1650
2017-09-16T08:12:54.635Z,1580
2017-09-16T08:14:05.940Z,1490
2017-09-16T08:15:16.395Z,1515
2017-09-16T08:16:26.532Z,1620
2017-09-16T08:17:37.262Z,1695
2017-09-16T08:18:47.976Z,1645
2017-09-16T08:19:58.515Z,1655
2017-09-16T08:21:08.985Z,1675
2017-09-16T08:22:19.482Z,1705
2017-09-16T08:23:30.184Z,1720
2017-09-16T08:24:40.634Z,1745
2017-09-16T08:25:50.812Z,1870
2017-09-16T08:27:01.004Z,2090
2017-09-16T08:28:11.674Z,2260
2017-09-16T08:29:22.365Z,2210
2017-09-16T08:30:32.911Z,2075
2017-09-16T08:31:42.930Z,2065
2017-09-16T08:32:53.725Z,2215
2017-09-16T08:34:04.194Z,2335
2017-09-16T08:35:14.913Z,2210
2017-09-16T08:36:25.477Z,2115
2017-09-16T08:37:36.058Z,2050
2017-09-16T08:38:46.922Z,2055
2017-09-16T08:39:57.386Z,2090
2017-09-16T08:41:07.808Z,2065
2017-09-16T08:42:18.335Z,2030
2017-09-16T08:43:28.792Z,2060
2017-09-16T08:44:39.497Z,2240
2017-09-16T08:45:49.854Z,2325
2017-09-16T08:47:00.587Z,2305
2017-09-16T08:48:11.092Z,2300
2017-09-16T08:49:21.106Z,2390
2017-09-16T08:50:31.869Z,2490
2017-09-16T08:51:42.345Z,2465
2017-09-16T08:52:53.205Z,2330
2017-09-16T08:54:03.655Z,2255
2017-09-16T08:55:14.233Z,2195
2017-09-16T08:56:24.769Z,2140
2017-09-16T08:57:35.281Z,2160
2017-09-16T08:58:45.708Z,2315
2017-09-16T08:59:55.882Z,2585
2017-09-16T09:01:06.647Z,2875
2017-09-16T09:02:17.121Z,2875
2017-09-16T09:03:27.587Z,2635
2017-09-16T09:04:37.998Z,2380
2017-09-16T09:05:48.515Z,2260
2017-09-16T09:06:59.194Z,2270
2017-09-16T09:08:09.786Z,2350
2017-09-16T09:09:20.255Z,2360
2017-09-16T09:10:30.982Z,2360
2017-09-16T09:11:41.607Z,2310
2017-09-16T09:12:52.097Z,2290
2017-09-16T09:14:02.642Z,2355
2017-09-16T09:15:13.177Z,2340
2017-09-16T09:16:23.968Z,2245
2017-09-16T09:17:34.462Z,2245
2017-09-16T09:18:44.899Z,2295
2017-09-16T09:19:55.432Z,2305
2017-09-16T09:21:06.572Z,2245
2017-09-16T09:22:17.068Z,2285
2017-09-16T09:23:27.695Z,2465
2017-09-16T09:24:37.861Z,2600
2017-09-16T09:25:48.096Z,2540
2017-09-16T09:26:58.591Z,2160
2017-09-16T09:28:09.305Z,720
2017-09-16T09:29:19.570Z,2320
2017-09-16T09:30:30.096Z,2540
2017-09-16T09:31:40.563Z,2695
2017-09-16T09:32:51.019Z,2720
2017-09-16T09:34:01.459Z,2675
2017-09-16T09:35:11.973Z,845
2017-09-16T09:36:22.542Z,2510
2017-09-16T09:37:32.784Z,2505
2017-09-16T09:38:43.276Z,2685
2017-09-16T09:39:53.951Z,2690
2017-09-16T09:41:04.431Z,2625
2017-09-16T09:42:15.174Z,2465
2017-09-16T09:43:25.409Z,2480
2017-09-16T09:44:35.894Z,2715
2017-09-16T09:45:46.292Z,2875
2017-09-16T09:46:56.826Z,2905
2017-09-16T09:48:07.365Z,2800
2017-09-16T09:49:18.060Z,1730
2017-09-16T09:50:28.565Z,730
2017-09-16T09:51:38.991Z,495
2017-09-16T09:52:49.691Z,500
2017-09-16T09:54:00.245Z,570
2017-09-16T09:55:10.791Z,700
2017-09-16T09:56:20.974Z,2725
2017-09-16T09:57:31.639Z,2695
2017-09-16T09:58:42.110Z,2915
2017-09-16T09:59:52.678Z,2860
2017-09-16T10:01:03.150Z,985
2017-09-16T10:02:13.845Z,675
2017-09-16T10:03:24.522Z,540
2017-09-16T10:04:35.152Z,505
2017-09-16T10:05:45.498Z,515
2017-09-16T10:06:56.118Z,500
2017-09-16T10:08:06.774Z,510
2017-09-16T10:09:17.065Z,510
2017-09-16T10:10:27.619Z,545
2017-09-16T10:11:38.114Z,580
2017-09-16T10:12:48.643Z,1670
2017-09-16T10:13:59.109Z,2655
2017-09-16T10:15:09.965Z,2855
2017-09-16T10:16:20.109Z,2910
2017-09-16T10:17:30.651Z,715
2017-09-16T10:18:41.174Z,520
2017-09-16T10:19:51.632Z,490
2017-09-16T10:21:02.575Z,515
2017-09-16T10:22:13.036Z,2270
2017-09-16T10:23:23.515Z,575
2017-09-16T10:24:33.734Z,490
2017-09-16T10:25:44.240Z,525
2017-09-16T10:26:54.883Z,555
2017-09-16T10:28:05.390Z,630
2017-09-16T10:29:15.964Z,2075
2017-09-16T10:30:26.469Z,805
2017-09-16T10:31:36.930Z,2980
2017-09-16T10:32:47.754Z,775
2017-09-16T10:33:58.395Z,730
2017-09-16T10:35:08.865Z,715
2017-09-16T10:36:19.358Z,770
2017-09-16T10:37:29.804Z,2980
2017-09-16T10:38:40.682Z,2980
2017-09-16T10:39:51.146Z,3035
2017-09-16T10:41:01.625Z,725
2017-09-16T10:42:12.112Z,650
2017-09-16T10:43:22.569Z,555
2017-09-16T10:44:33.356Z,535
2017-09-16T10:45:43.542Z,545
2017-09-16T10:46:53.866Z,560
2017-09-16T10:48:04.105Z,595
2017-09-16T10:49:14.218Z,595
2017-09-16T10:50:24.955Z,610
2017-09-16T10:51:35.418Z,670
2017-09-16T10:52:45.945Z,655
2017-09-16T10:53:56.475Z,925
2017-09-16T10:55:06.948Z,990
2017-09-16T10:56:17.690Z,2285
2017-09-16T10:57:28.168Z,675
2017-09-16T10:58:38.668Z,1355
2017-09-16T10:59:48.825Z,700
2017-09-16T11:00:58.988Z,700
2017-09-16T11:02:09.405Z,670
2017-09-16T11:03:20.015Z,655
2017-09-16T11:04:30.504Z,650
2017-09-16T11:05:40.648Z,660
2017-09-16T11:06:51.148Z,635
2017-09-16T11:08:02.181Z,1105
2017-09-16T11:09:12.874Z,750
2017-09-16T11:10:24.321Z,805
2017-09-16T11:11:34.814Z,805
2017-09-16T11:12:45.460Z,840
2017-09-16T11:13:56.240Z,2290
2017-09-16T11:15:06.683Z,3205
2017-09-16T11:16:17.172Z,845
2017-09-16T11:17:27.640Z,770
2017-09-16T11:18:38.121Z,725
2017-09-16T11:19:48.550Z,695
2017-09-16T11:20:58.570Z,660
2017-09-16T11:22:09.019Z,635
2017-09-16T11:23:19.370Z,630
2017-09-16T11:24:30.126Z,590
2017-09-16T11:25:40.916Z,515
2017-09-16T11:26:51.397Z,475
2017-09-16T11:28:01.869Z,455
2017-09-16T11:29:12.038Z,465
2017-09-16T11:30:22.621Z,470
2017-09-16T11:31:33.546Z,485
2017-09-16T11:32:44.082Z,510
2017-09-16T11:33:54.578Z,520
2017-09-16T11:35:05.061Z,535
2017-09-16T11:36:15.210Z,550
2017-09-16T11:37:26.010Z,595
2017-09-16T11:38:36.479Z,600
2017-09-16T11:39:47.077Z,625
2017-09-16T11:40:58.188Z,690
2017-09-16T11:42:08.524Z,1640
2017-09-16T11:43:19.227Z,1815
2017-09-16T11:44:29.065Z,770
2017-09-16T11:45:39.010Z,650
2017-09-16T11:46:49.472Z,555
2017-09-16T11:47:59.970Z,505
2017-09-16T11:49:10.707Z,615
2017-09-16T11:50:21.199Z,690
2017-09-16T11:51:31.773Z,690
2017-09-16T11:52:42.324Z,675
2017-09-16T11:53:52.775Z,1845
2017-09-16T11:55:03.575Z,2830
2017-09-16T11:56:14.294Z,2535
2017-09-16T11:57:24.762Z,3320
2017-09-16T11:58:35.425Z,3420
2017-09-16T11:59:46.072Z,1665
2017-09-16T12:00:56.852Z,1950
2017-09-16T12:02:07.504Z,2600
2017-09-16T12:03:17.664Z,2725
2017-09-16T12:04:28.190Z,2660
2017-09-16T12:05:38.665Z,2650
2017-09-16T12:06:50.849Z,2800
2017-09-16T12:08:01.312Z,2895
2017-09-16T12:09:12.058Z,3030
2017-09-16T12:10:22.495Z,3090
2017-09-16T12:11:32.701Z,1370
2017-09-16T12:12:44.552Z,2155
2017-09-16T12:13:54.700Z,2930
2017-09-16T12:15:05.197Z,1200
2017-09-16T12:16:15.684Z,2390
2017-09-16T12:17:26.201Z,785
2017-09-16T12:18:36.944Z,665
2017-09-16T12:19:47.393Z,595
2017-09-16T12:20:57.977Z,625
2017-09-16T12:22:08.523Z,1950
2017-09-16T12:23:19.244Z,795
2017-09-16T12:24:30.266Z,820
2017-09-16T12:25:40.825Z,765
2017-09-16T12:26:51.382Z,745
2017-09-16T12:28:01.873Z,825
2017-09-16T12:29:12.415Z,895
2017-09-16T12:30:23.197Z,880
2017-09-16T12:31:33.713Z,875
2017-09-16T12:32:43.960Z,1555
2017-09-16T12:33:54.143Z,2625
2017-09-16T12:35:04.632Z,2695
2017-09-16T12:36:15.365Z,2800
2017-09-16T12:37:25.845Z,2755
2017-09-16T12:38:36.294Z,2945
2017-09-16T12:39:46.792Z,760
2017-09-16T12:40:57.240Z,645
2017-09-16T12:42:07.949Z,565
2017-09-16T12:43:17.997Z,550
2017-09-16T12:44:28.151Z,695
2017-09-16T12:45:38.636Z,985
2017-09-16T12:46:49.102Z,970
2017-09-16T12:47:59.906Z,2585
2017-09-16T12:49:10.410Z,930
2017-09-16T12:50:20.756Z,660
2017-09-16T12:51:31.308Z,585
2017-09-16T12:52:41.826Z,605
2017-09-16T12:53:52.537Z,650
2017-09-16T12:55:03.120Z,735
2017-09-16T12:56:13.623Z,2075
2017-09-16T12:57:24.297Z,815
2017-09-16T12:58:34.850Z,1305
2017-09-16T12:59:45.635Z,755
2017-09-16T13:00:56.373Z,695
2017-09-16T13:02:06.873Z,610
2017-09-16T13:03:17.320Z,510
2017-09-16T13:04:27.357Z,445
2017-09-16T13:05:37.803Z,430
2017-09-16T13:06:48.456Z,440
2017-09-16T13:07:58.943Z,490
2017-09-16T13:09:09.429Z,495
2017-09-16T13:10:20.135Z,485
2017-09-16T13:11:30.844Z,440
2017-09-16T13:12:40.872Z,405
2017-09-16T13:13:51.591Z,400
2017-09-16T13:15:02.171Z,405
2017-09-16T13:16:12.643Z,445
2017-09-16T13:17:23.344Z,495
2017-09-16T13:18:33.883Z,1175
2017-09-16T13:19:44.352Z,2210
2017-09-16T13:20:54.506Z,2160
2017-09-16T13:22:04.690Z,565
2017-09-16T13:23:15.487Z,625
2017-09-16T13:24:25.994Z,535
2017-09-16T13:25:36.467Z,570
2017-09-16T13:26:46.940Z,740
2017-09-16T13:27:57.398Z,2090
2017-09-16T13:29:08.143Z,490
2017-09-16T13:30:18.370Z,430
2017-09-16T13:31:29.502Z,365
2017-09-16T13:32:40.125Z,300
2017-09-16T13:33:50.601Z,260
2017-09-16T13:35:01.331Z,250
2017-09-16T13:36:11.793Z,265
2017-09-16T13:37:21.991Z,265
2017-09-16T13:38:32.504Z,235
2017-09-16T13:39:42.966Z,215
2017-09-16T13:40:53.436Z,210
2017-09-16T13:42:03.904Z,210
2017-09-16T13:43:14.352Z,210
2017-09-16T13:44:24.817Z,215
2017-09-16T13:45:34.949Z,210
2017-09-16T13:46:45.714Z,205
2017-09-16T13:47:56.185Z,215
2017-09-16T13:49:06.667Z,235
2017-09-16T13:50:17.205Z,250
2017-09-16T13:51:27.693Z,295
2017-09-16T13:52:38.440Z,350
2017-09-16T13:53:48.598Z,355
2017-09-16T13:54:58.938Z,330
2017-09-16T13:56:09.411Z,310
2017-09-16T13:57:19.669Z,295
2017-09-16T13:58:30.407Z,285
2017-09-16T13:59:40.879Z,275
2017-09-16T14:00:51.067Z,290
2017-09-16T14:02:01.709Z,300
2017-09-16T14:03:12.185Z,330
2017-09-16T14:04:22.898Z,1365
2017-09-16T14:05:33.421Z,360
2017-09-16T14:06:43.871Z,345
2017-09-16T14:07:54.431Z,350
2017-09-16T14:09:04.884Z,345
2017-09-16T14:10:15.610Z,350
2017-09-16T14:11:26.101Z,355
2017-09-16T14:12:36.548Z,370
2017-09-16T14:13:47.052Z,430
2017-09-16T14:14:57.584Z,1315
2017-09-16T14:16:08.332Z,1315
2017-09-16T14:17:18.017Z,1425
2017-09-16T14:18:28.492Z,1570
2017-09-16T14:19:39.025Z,605
2017-09-16T14:20:49.494Z,565
2017-09-16T14:21:59.952Z,630
2017-09-16T14:23:10.431Z,1305
2017-09-16T14:24:20.917Z,1505
2017-09-16T14:25:31.443Z,420
2017-09-16T14:26:41.958Z,335
2017-09-16T14:27:52.691Z,335
2017-09-16T14:29:03.185Z,340
2017-09-16T14:30:13.659Z,345
2017-09-16T14:31:24.150Z,335
2017-09-16T14:32:34.607Z,330
2017-09-16T14:33:45.363Z,315
2017-09-16T14:34:55.551Z,305
2017-09-16T14:36:06.041Z,275
2017-09-16T14:37:16.505Z,250
2017-09-16T14:38:27.085Z,265
2017-09-16T14:39:37.812Z,260
2017-09-16T14:40:48.408Z,250
2017-09-16T14:41:58.890Z,235
2017-09-16T14:43:09.381Z,240
2017-09-16T14:44:19.521Z,240
2017-09-16T14:45:30.264Z,245
2017-09-16T14:46:40.789Z,235
2017-09-16T14:47:51.302Z,230
2017-09-16T14:49:01.767Z,225
2017-09-16T14:50:12.408Z,220
2017-09-16T14:51:23.136Z,225
2017-09-16T14:52:33.631Z,220
2017-09-16T14:53:44.130Z,215
2017-09-16T14:54:54.629Z,220
2017-09-16T14:56:05.244Z,230
2017-09-16T14:57:16.016Z,240
2017-09-16T14:58:26.571Z,235
2017-09-16T14:59:37.056Z,245
2017-09-16T15:00:47.604Z,245
2017-09-16T15:01:57.589Z,355
2017-09-16T15:03:08.309Z,305
2017-09-16T15:04:18.836Z,350
2017-09-16T15:05:29.408Z,440
2017-09-16T15:06:40.134Z,390
2017-09-16T15:07:50.640Z,375
2017-09-16T15:09:01.381Z,365
2017-09-16T15:10:12.056Z,420
2017-09-16T15:11:22.541Z,710
2017-09-16T15:12:33.204Z,785
2017-09-16T15:13:43.727Z,205
2017-09-16T15:14:54.427Z,160
2017-09-16T15:16:05.044Z,150
2017-09-16T15:17:15.594Z,150
2017-09-16T15:18:26.310Z,160
2017-09-16T15:19:36.803Z,180
2017-09-16T15:20:47.248Z,205
2017-09-16T15:21:57.684Z,230
2017-09-16T15:23:07.363Z,230
2017-09-16T15:24:18.094Z,240
2017-09-16T15:25:28.669Z,375
2017-09-16T15:26:39.417Z,205
2017-09-16T15:27:50.043Z,205
2017-09-16T15:29:00.510Z,215
2017-09-16T15:30:10.682Z,245
2017-09-16T15:31:21.206Z,330
2017-09-16T15:32:31.914Z,630
2017-09-16T15:33:42.636Z,630
2017-09-16T15:34:53.152Z,730
2017-09-16T15:36:03.644Z,775
2017-09-16T15:37:14.212Z,725
2017-09-16T15:38:24.949Z,680
2017-09-16T15:39:35.399Z,710
2017-09-16T15:40:46.085Z,755
2017-09-16T15:41:56.599Z,805
2017-09-16T15:43:07.150Z,845
2017-09-16T15:44:18.018Z,755
2017-09-16T15:45:28.488Z,700
2017-09-16T15:46:38.946Z,685
2017-09-16T15:47:49.407Z,660
2017-09-16T15:48:59.567Z,660
2017-09-16T15:50:10.075Z,645
2017-09-16T15:51:20.519Z,620
2017-09-16T15:52:31.032Z,605
2017-09-16T15:53:41.671Z,575
2017-09-16T15:54:52.150Z,530
2017-09-16T15:56:02.851Z,520
2017-09-16T15:57:13.373Z,520
2017-09-16T15:58:23.805Z,495
2017-09-16T15:59:34.335Z,470
2017-09-16T16:00:44.916Z,435
2017-09-16T16:01:55.693Z,430
2017-09-16T16:03:05.863Z,285
2017-09-16T16:04:16.316Z,190
2017-09-16T16:05:26.818Z,195
2017-09-16T16:06:37.422Z,195
2017-09-16T16:07:48.213Z,180
2017-09-16T16:08:58.372Z,175
2017-09-16T16:10:08.732Z,175
2017-09-16T16:11:19.320Z,180
2017-09-16T16:12:29.496Z,185
2017-09-16T16:13:40.213Z,190
2017-09-16T16:14:50.762Z,200
2017-09-16T16:16:01.317Z,200
2017-09-16T16:17:11.810Z,200
2017-09-16T16:18:22.332Z,205
2017-09-16T16:19:32.742Z,215
2017-09-16T16:20:43.257Z,225
2017-09-16T16:21:53.776Z,225
2017-09-16T16:23:04.242Z,220
2017-09-16T16:24:14.742Z,220
2017-09-16T16:25:25.585Z,230